createdAt,value
2017-08-08T00:02:59.703Z,95513
2017-08-08T00:08:27.875Z,95501
2017-08-08T00:13:57.027Z,95502
2017-08-08T00:19:25.964Z,95490
2017-08-08T00:24:54.154Z,95499
2017-08-08T00:30:23.099Z,95487
2017-08-08T00:35:51.293Z,95467
2017-08-08T00:41:19.590Z,95450
2017-08-08T00:46:47.928Z,95446
2017-08-08T00:52:16.116Z,95446
2017-08-08T00:57:44.267Z,95458
2017-08-08T01:03:12.436Z,95452
2017-08-08T01:08:42.590Z,95442
2017-08-08T01:14:11.532Z,95440
2017-08-08T01:19:39.688Z,95424
2017-08-08T01:25:07.854Z,95432
2017-08-08T01:30:36.209Z,95426
2017-08-08T01:36:04.448Z,95412
2017-08-08T01:41:32.632Z,95420
2017-08-08T01:47:00.807Z,95409
2017-08-08T01:52:29.114Z,95411
2017-08-08T01:57:57.278Z,95411
2017-08-08T02:03:25.449Z,95400
2017-08-08T02:08:53.595Z,95406
2017-08-08T02:14:21.784Z,95396
2017-08-08T02:19:49.933Z,95396
2017-08-08T02:25:18.097Z,95387
2017-08-08T02:30:46.295Z,95389
2017-08-08T02:36:15.233Z,95384
2017-08-08T02:41:44.332Z,95396
2017-08-08T02:47:12.492Z,95402
2017-08-08T02:52:40.656Z,95387
2017-08-08T02:58:09.841Z,95389
2017-08-08T03:03:38.016Z,95389
2017-08-08T03:09:06.940Z,95384
2017-08-08T03:14:35.099Z,95375
2017-08-08T03:20:03.398Z,95373
2017-08-08T03:25:32.578Z,95366
2017-08-08T03:31:01.217Z,95369
2017-08-08T03:36:30.331Z,95363
2017-08-08T03:41:58.562Z,95370
2017-08-08T03:47:26.713Z,95363
2017-08-08T03:52:54.881Z,95351
2017-08-08T03:58:23.173Z,95342
2017-08-08T04:03:51.374Z,95332
2017-08-08T04:09:19.568Z,95321
2017-08-08T04:14:48.508Z,95310
2017-08-08T04:20:16.685Z,95299
2017-08-08T04:25:44.837Z,95287
2017-08-08T04:31:13.369Z,95294
2017-08-08T04:36:48.403Z,95292
2017-08-08T04:42:16.584Z,95293
2017-08-08T04:47:44.759Z,95296
2017-08-08T04:53:12.943Z,95294
2017-08-08T04:58:41.115Z,95318
2017-08-08T05:04:09.657Z,95323
2017-08-08T05:09:37.830Z,95321
2017-08-08T05:15:06.001Z,95324
2017-08-08T05:20:34.148Z,95324
2017-08-08T05:26:02.337Z,95323
2017-08-08T05:31:30.532Z,95326
2017-08-08T05:36:59.456Z,95318
2017-08-08T05:42:27.607Z,95331
2017-08-08T05:47:55.801Z,95322
2017-08-08T05:53:23.950Z,95321
2017-08-08T05:58:52.105Z,95319
2017-08-08T06:04:20.252Z,95305
2017-08-08T06:09:48.445Z,95321
2017-08-08T06:15:16.613Z,95316
2017-08-08T06:20:45.527Z,95312
2017-08-08T06:26:13.717Z,95304
2017-08-08T06:31:41.891Z,95298
2017-08-08T06:37:10.037Z,95297
2017-08-08T06:42:38.195Z,95305
2017-08-08T06:48:06.359Z,95298
2017-08-08T06:53:34.513Z,95287
2017-08-08T06:59:02.684Z,95275
2017-08-08T07:04:30.854Z,95277
2017-08-08T07:09:59.784Z,95257
2017-08-08T07:15:27.958Z,95251
2017-08-08T07:20:56.117Z,95250
2017-08-08T07:26:24.274Z,95239
2017-08-08T07:31:52.450Z,95229
2017-08-08T07:37:20.587Z,95212
2017-08-08T07:42:49.671Z,95208
2017-08-08T07:48:17.832Z,95194
2017-08-08T07:53:45.988Z,95186
2017-08-08T07:59:14.159Z,95188
2017-08-08T08:04:42.298Z,95189
2017-08-08T08:10:10.449Z,95186
2017-08-08T08:15:38.591Z,95188
2017-08-08T08:21:06.756Z,95191
2017-08-08T08:26:35.020Z,95184
2017-08-08T08:32:03.168Z,95177
2017-08-08T08:37:31.332Z,95165
2017-08-08T08:42:59.478Z,95170
2017-08-08T08:48:27.633Z,95167
2017-08-08T08:53:57.406Z,95172
2017-08-08T08:59:26.347Z,95172
2017-08-08T09:04:54.576Z,95181
2017-08-08T09:10:23.520Z,95166
2017-08-08T09:15:51.703Z,95154
2017-08-08T09:21:19.855Z,95164
2017-08-08T09:26:48.028Z,95164
2017-08-08T09:32:16.247Z,95156
2017-08-08T09:37:45.485Z,95160
2017-08-08T09:43:14.590Z,95156
2017-08-08T09:48:42.752Z,95161
2017-08-08T09:54:10.899Z,95171
2017-08-08T09:59:39.832Z,95181
2017-08-08T10:05:07.971Z,95171
2017-08-08T10:10:36.270Z,95180
2017-08-08T10:16:04.574Z,95171
2017-08-08T10:21:33.799Z,95165
2017-08-08T10:27:02.033Z,95152
2017-08-08T10:32:30.205Z,95140
2017-08-08T10:37:58.498Z,95136
2017-08-08T10:43:26.694Z,95147
2017-08-08T10:48:54.856Z,95143
2017-08-08T10:54:23.781Z,95151
2017-08-08T10:59:51.918Z,95157
2017-08-08T11:05:20.217Z,95157
2017-08-08T11:10:48.424Z,95153
2017-08-08T11:16:18.340Z,95150
2017-08-08T11:21:46.490Z,95138
2017-08-08T11:27:14.640Z,95142
2017-08-08T11:32:42.800Z,95147
2017-08-08T11:38:10.957Z,95143
2017-08-08T11:43:41.912Z,95159
2017-08-08T11:49:11.134Z,95174
2017-08-08T11:54:39.519Z,95155
2017-08-08T12:00:08.260Z,95170
2017-08-08T12:05:37.228Z,95198
2017-08-08T12:11:06.344Z,95210
2017-08-08T12:16:34.602Z,95228
2017-08-08T12:22:03.545Z,95221
2017-08-08T12:27:31.827Z,95219
2017-08-08T12:33:01.194Z,95213
2017-08-08T12:38:32.547Z,95224
2017-08-08T12:44:00.865Z,95237
2017-08-08T12:49:29.529Z,95239
2017-08-08T12:54:57.942Z,95240
2017-08-08T13:00:26.754Z,95259
2017-08-08T13:05:55.848Z,95263
2017-08-08T13:11:24.028Z,95266
2017-08-08T13:16:52.202Z,95284
2017-08-08T13:22:20.419Z,95281
2017-08-08T13:27:49.296Z,95288
2017-08-08T13:33:18.059Z,95288
2017-08-08T13:38:46.231Z,95293
2017-08-08T13:44:14.376Z,95292
2017-08-08T13:49:43.918Z,95300
2017-08-08T13:55:12.864Z,95296
2017-08-08T14:00:41.010Z,95300
2017-08-08T14:06:09.168Z,95303
2017-08-08T14:11:37.302Z,95319
2017-08-08T14:17:05.466Z,95328
2017-08-08T14:22:33.654Z,95332
2017-08-08T14:28:01.838Z,95327
2017-08-08T14:33:30.759Z,95325
2017-08-08T14:38:58.913Z,95336
2017-08-08T14:44:27.100Z,95345
2017-08-08T14:49:55.254Z,95375
2017-08-08T14:55:23.424Z,95376
2017-08-08T15:00:51.580Z,95400
2017-08-08T15:06:20.699Z,95403
2017-08-08T15:11:48.886Z,95412
2017-08-08T15:17:17.044Z,95417
2017-08-08T15:22:45.208Z,95421
2017-08-08T15:28:13.364Z,95420
2017-08-08T15:33:41.516Z,95435
2017-08-08T15:39:09.668Z,95445
2017-08-08T15:44:37.843Z,95463
2017-08-08T15:50:06.047Z,95469
2017-08-08T15:55:34.238Z,95477
2017-08-08T16:01:02.396Z,95472
2017-08-08T16:06:30.591Z,95477
2017-08-08T16:11:58.737Z,95484
2017-08-08T16:17:26.905Z,95503
2017-08-08T16:22:55.086Z,95509
2017-08-08T16:28:23.229Z,95533
2017-08-08T16:33:51.387Z,95551
2017-08-08T16:39:19.564Z,95540
2017-08-08T16:44:48.529Z,95542
2017-08-08T16:50:17.509Z,95523
2017-08-08T16:55:46.179Z,95531
2017-08-08T17:01:15.108Z,95512
2017-08-08T17:06:46.479Z,95521
2017-08-08T17:12:14.637Z,95529
2017-08-08T17:17:42.800Z,95526
2017-08-08T17:23:12.725Z,95529
2017-08-08T17:28:40.878Z,95532
2017-08-08T17:34:09.036Z,95546
2017-08-08T17:39:38.330Z,95539
2017-08-08T17:45:06.477Z,95543
2017-08-08T17:50:35.583Z,95557
2017-08-08T17:56:05.369Z,95549
2017-08-08T18:01:33.525Z,95561
2017-08-08T18:07:02.513Z,95555
2017-08-08T18:12:30.681Z,95559
2017-08-08T18:17:58.890Z,95554
2017-08-08T18:23:27.817Z,95565
2017-08-08T18:28:55.989Z,95592
2017-08-08T18:34:24.157Z,95624
2017-08-08T18:39:52.345Z,95636
2017-08-08T18:45:21.543Z,95641
2017-08-08T18:50:49.781Z,95609
2017-08-08T18:56:17.948Z,95601
2017-08-08T19:01:46.128Z,95611
2017-08-08T19:07:14.273Z,95605
2017-08-08T19:12:42.441Z,95606
2017-08-08T19:18:10.587Z,95610
2017-08-08T19:23:38.753Z,95642
2017-08-08T19:29:06.911Z,95740
2017-08-08T19:34:35.065Z,95833
2017-08-08T19:40:03.221Z,95852
2017-08-08T19:45:31.374Z,95842
2017-08-08T19:50:59.525Z,95840
2017-08-08T19:56:28.452Z,95795
2017-08-08T20:01:56.616Z,95782
2017-08-08T20:07:24.764Z,95748
2017-08-08T20:12:52.941Z,95754
2017-08-08T20:18:22.725Z,95714
2017-08-08T20:23:51.215Z,95671
2017-08-08T20:29:19.540Z,95676
2017-08-08T20:34:47.778Z,95727
2017-08-08T20:40:15.932Z,95738
2017-08-08T20:45:44.089Z,95714
2017-08-08T20:51:12.231Z,95710
2017-08-08T20:56:41.192Z,95722
2017-08-08T21:02:10.114Z,95736
2017-08-08T21:07:38.323Z,95731
2017-08-08T21:13:06.562Z,95729
2017-08-08T21:18:34.712Z,95740
2017-08-08T21:24:02.941Z,95757
2017-08-08T21:29:31.076Z,95743
2017-08-08T21:34:59.211Z,95710
2017-08-08T21:40:27.352Z,95729
2017-08-08T21:45:55.502Z,95736
2017-08-08T21:51:23.655Z,95759
2017-08-08T21:56:51.820Z,95753
2017-08-08T22:02:19.987Z,95720
2017-08-08T22:07:48.161Z,95707
2017-08-08T22:13:17.074Z,95672
2017-08-08T22:18:45.258Z,95648
2017-08-08T22:24:13.773Z,95597
2017-08-08T22:29:42.671Z,95671
2017-08-08T22:35:10.822Z,95680
2017-08-08T22:40:38.985Z,95635
2017-08-08T22:46:07.149Z,95707
2017-08-08T22:51:35.409Z,95728
2017-08-08T22:57:03.542Z,95742
2017-08-08T23:02:31.689Z,95748
2017-08-08T23:07:59.833Z,95770
2017-08-08T23:13:28.070Z,95758
2017-08-08T23:18:56.225Z,95753
2017-08-08T23:24:24.422Z,95757
2017-08-08T23:29:53.352Z,95723
2017-08-08T23:35:21.486Z,95719
2017-08-08T23:40:49.635Z,95714
2017-08-08T23:46:17.788Z,95722
2017-08-08T23:51:45.946Z,95732
2017-08-08T23:57:14.083Z,95734
